Time;durP1;ratioP1;P1;durP2;ratioP2;P2;SDS_P1;SDS_P2;PMS_P1;PMS_P2;Temp;Humidity;BMP_temperature;BMP_pressure;BME280_temperature;BME280_humidity;BME280_pressure;Samples;Min_cycle;Max_cycle;Signal;HPM_P1;HPM_P2
2020/12/11 00:00:01;;;;;;;41.93;27.20;;;;;;;;;;2076627;28;20487;-53
2020/12/11 00:01:01;;;;;;;45.70;28.97;;;;;;;;;;2070760;28;20189;-57
2020/12/11 00:02:01;;;;;;;43.00;28.03;;;;;;;;;;2067929;28;20622;-56
2020/12/11 00:03:01;;;;;;;48.57;28.37;;;;;;;;;;2080735;28;20260;-58
2020/12/11 00:04:02;;;;;;;41.80;27.97;;;;;;;;;;2078378;28;20303;-54
2020/12/11 00:05:03;;;;;;;44.43;28.60;;;;;;;;;;2081872;28;20172;-56
2020/12/11 00:06:03;;;;;;;43.80;27.27;;;;;;;;;;2078931;28;20266;-54
2020/12/11 00:07:03;;;;;;;40.33;27.67;;;;;;;;;;2059955;28;20229;-54
2020/12/11 00:08:03;;;;;;;43.97;28.40;;;;;;;;;;2065452;28;20161;-53
2020/12/11 00:09:04;;;;;;;39.23;25.43;;;;;;;;;;2080625;28;20188;-53
2020/12/11 00:10:05;;;;;;;41.30;26.40;;;;;;;;;;2076532;28;20173;-52
2020/12/11 00:11:05;;;;;;;40.77;26.67;;;;;;;;;;2082349;28;20180;-57
2020/12/11 00:12:05;;;;;;;46.13;28.07;;;;;;;;;;2069995;28;20185;-56
2020/12/11 00:13:05;;;;;;;42.80;27.03;;;;;;;;;;2068545;28;20168;-55
2020/12/11 00:14:06;;;;;;;42.63;26.83;;;;;;;;;;2076382;28;20195;-56
2020/12/11 00:15:07;;;;;;;43.30;27.03;;;;;;;;;;2077447;28;20230;-52
2020/12/11 00:16:08;;;;;;;43.63;27.07;;;;;;;;;;2078351;28;20169;-53
2020/12/11 00:17:08;;;;;;;40.80;25.80;;;;;;;;;;2068551;28;20632;-57
2020/12/11 00:18:08;;;;;;;41.40;27.30;;;;;;;;;;2073123;28;20722;-58
2020/12/11 00:19:08;;;;;;;39.20;24.03;;;;;;;;;;2078446;28;20756;-55
2020/12/11 00:20:09;;;;;;;38.47;26.50;;;;;;;;;;2077544;28;20660;-56
2020/12/11 00:21:09;;;;;;;36.40;24.37;;;;;;;;;;2078099;28;20200;-54
2020/12/11 00:22:14;;;;;;;37.90;24.07;;;;;;;;;;2068198;28;20787;-57
2020/12/11 00:23:14;;;;;;;38.13;24.30;;;;;;;;;;2073908;28;20172;-57
2020/12/11 00:24:15;;;;;;;38.13;24.30;;;;;;;;;;2080292;28;20180;-58
2020/12/11 00:25:15;;;;;;;35.47;24.63;;;;;;;;;;2077154;28;20169;-57
2020/12/11 00:26:16;;;;;;;34.63;23.53;;;;;;;;;;2077188;28;20168;-55
2020/12/11 00:27:17;;;;;;;35.77;23.53;;;;;;;;;;2078445;28;20180;-54
2020/12/11 00:28:17;;;;;;;34.43;23.80;;;;;;;;;;2081621;28;20251;-55
2020/12/11 00:29:17;;;;;;;39.33;24.20;;;;;;;;;;2081073;28;20199;-56
2020/12/11 00:30:17;;;;;;;38.43;24.67;;;;;;;;;;2073290;28;20260;-56
2020/12/11 00:31:22;;;;;;;39.87;24.27;;;;;;;;;;2068190;28;20635;-52
2020/12/11 00:32:22;;;;;;;36.30;25.53;;;;;;;;;;2079504;28;20576;-58
2020/12/11 00:33:23;;;;;;;37.60;23.80;;;;;;;;;;2075978;28;20218;-53
2020/12/11 00:34:23;;;;;;;36.97;24.03;;;;;;;;;;2079416;28;20202;-56
2020/12/11 00:35:23;;;;;;;37.90;24.70;;;;;;;;;;2081718;28;20715;-56
2020/12/11 00:36:24;;;;;;;35.43;23.57;;;;;;;;;;2077834;28;20613;-53
2020/12/11 00:37:25;;;;;;;37.97;24.20;;;;;;;;;;2081558;28;20180;-52
2020/12/11 00:38:29;;;;;;;37.87;23.30;;;;;;;;;;2077536;28;20702;-55
2020/12/11 00:39:30;;;;;;;37.60;24.03;;;;;;;;;;2081426;28;20583;-57
2020/12/11 00:40:30;;;;;;;38.03;24.13;;;;;;;;;;2082223;28;20409;-55
2020/12/11 00:41:30;;;;;;;38.80;23.73;;;;;;;;;;2074953;28;20185;-57
2020/12/11 00:42:31;;;;;;;33.87;23.43;;;;;;;;;;2070958;28;20228;-54
2020/12/11 00:43:31;;;;;;;35.13;23.60;;;;;;;;;;2064529;28;20716;-58
2020/12/11 00:44:31;;;;;;;37.77;24.13;;;;;;;;;;2066130;28;20232;-55
2020/12/11 00:45:32;;;;;;;33.93;23.13;;;;;;;;;;2080655;28;20199;-56
2020/12/11 00:46:32;;;;;;;37.37;24.13;;;;;;;;;;2075080;28;20241;-54
2020/12/11 00:47:33;;;;;;;34.00;23.27;;;;;;;;;;2063982;28;20169;-56
2020/12/11 00:48:33;;;;;;;38.40;24.80;;;;;;;;;;2056685;28;20611;-52
2020/12/11 00:49:33;;;;;;;33.80;24.20;;;;;;;;;;2072680;28;20231;-54
2020/12/11 00:50:33;;;;;;;34.53;23.87;;;;;;;;;;2057749;28;20166;-54
2020/12/11 00:51:34;;;;;;;35.17;24.03;;;;;;;;;;2064267;28;20178;-53
2020/12/11 00:52:34;;;;;;;34.77;22.83;;;;;;;;;;2072974;28;20181;-56
2020/12/11 00:53:35;;;;;;;35.30;22.77;;;;;;;;;;2072715;28;20226;-56
2020/12/11 00:54:36;;;;;;;32.93;22.77;;;;;;;;;;2071186;28;20624;-57
2020/12/11 00:55:36;;;;;;;34.13;22.87;;;;;;;;;;2076586;28;20263;-56
2020/12/11 00:56:36;;;;;;;34.53;22.77;;;;;;;;;;2072912;28;20636;-54
2020/12/11 00:57:36;;;;;;;34.23;22.60;;;;;;;;;;2065126;28;20678;-55
2020/12/11 00:58:37;;;;;;;34.90;22.67;;;;;;;;;;2078434;28;20553;-57
2020/12/11 00:59:37;;;;;;;33.03;23.23;;;;;;;;;;2081325;28;20263;-56
2020/12/11 01:00:37;;;;;;;36.23;24.60;;;;;;;;;;2073992;28;20238;-53
2020/12/11 01:01:37;;;;;;;33.17;22.10;;;;;;;;;;2081318;28;20208;-50
2020/12/11 01:02:38;;;;;;;33.63;22.83;;;;;;;;;;2078241;28;20238;-56
2020/12/11 01:03:38;;;;;;;32.70;23.00;;;;;;;;;;2075419;28;20897;-57
2020/12/11 01:04:38;;;;;;;34.77;23.93;;;;;;;;;;2078841;28;20172;-53
2020/12/11 01:05:38;;;;;;;34.73;23.40;;;;;;;;;;2081693;28;20164;-56
2020/12/11 01:06:39;;;;;;;33.87;22.20;;;;;;;;;;2080196;28;20633;-56
2020/12/11 01:07:39;;;;;;;31.53;22.07;;;;;;;;;;2081710;28;20255;-56
2020/12/11 01:08:39;;;;;;;34.13;23.50;;;;;;;;;;2070090;28;20192;-59
2020/12/11 01:09:39;;;;;;;31.67;21.83;;;;;;;;;;2073226;28;20205;-59
2020/12/11 01:10:40;;;;;;;30.27;21.97;;;;;;;;;;2073687;28;20241;-55
2020/12/11 01:11:40;;;;;;;31.87;22.20;;;;;;;;;;2082048;28;20210;-55
2020/12/11 01:12:40;;;;;;;32.50;22.30;;;;;;;;;;2082597;28;20210;-56
2020/12/11 01:13:40;;;;;;;33.70;21.60;;;;;;;;;;2078327;28;20215;-55
2020/12/11 01:14:41;;;;;;;33.87;22.07;;;;;;;;;;2077074;28;20196;-57
2020/12/11 01:15:41;;;;;;;34.30;23.00;;;;;;;;;;2073977;28;20192;-57
2020/12/11 01:16:41;;;;;;;34.50;22.90;;;;;;;;;;2074257;28;20169;-56
2020/12/11 01:17:41;;;;;;;32.83;22.13;;;;;;;;;;2073871;28;20715;-55
2020/12/11 01:18:42;;;;;;;31.27;22.60;;;;;;;;;;2074348;28;20188;-57
2020/12/11 01:19:42;;;;;;;35.10;22.37;;;;;;;;;;2078103;28;20230;-55
2020/12/11 01:20:42;;;;;;;34.07;22.33;;;;;;;;;;2081527;28;20692;-54
2020/12/11 01:21:43;;;;;;;33.00;22.50;;;;;;;;;;2073140;28;20176;-55
2020/12/11 01:22:43;;;;;;;31.60;21.73;;;;;;;;;;2073831;28;20180;-54
2020/12/11 01:23:43;;;;;;;28.53;19.90;;;;;;;;;;2073774;28;20196;-55
2020/12/11 01:24:43;;;;;;;34.40;22.53;;;;;;;;;;2071865;28;20181;-53
2020/12/11 01:25:44;;;;;;;33.53;22.73;;;;;;;;;;2072089;28;20251;-55
2020/12/11 01:26:45;;;;;;;34.87;22.33;;;;;;;;;;2073667;28;20319;-52
2020/12/11 01:27:45;;;;;;;36.00;23.20;;;;;;;;;;2079011;28;20184;-54
2020/12/11 01:28:45;;;;;;;33.87;22.03;;;;;;;;;;2080579;28;20192;-52
2020/12/11 01:29:46;;;;;;;30.30;21.43;;;;;;;;;;2071246;28;20274;-56
2020/12/11 01:30:46;;;;;;;32.10;21.10;;;;;;;;;;2065273;28;20173;-53
2020/12/11 01:31:46;;;;;;;34.17;22.30;;;;;;;;;;2071947;28;20235;-56
2020/12/11 01:32:47;;;;;;;34.57;22.47;;;;;;;;;;2070142;28;20810;-56
2020/12/11 01:33:48;;;;;;;36.80;22.90;;;;;;;;;;2079985;28;20644;-55
2020/12/11 01:34:48;;;;;;;29.60;20.83;;;;;;;;;;2066095;28;20180;-55
2020/12/11 01:35:48;;;;;;;29.17;20.87;;;;;;;;;;2072942;28;20586;-54
2020/12/11 01:36:49;;;;;;;30.63;21.27;;;;;;;;;;2072312;28;20187;-56
2020/12/11 01:37:49;;;;;;;32.73;23.13;;;;;;;;;;2071267;28;20216;-57
2020/12/11 01:38:49;;;;;;;33.27;22.33;;;;;;;;;;2080823;28;20290;-56
2020/12/11 01:39:49;;;;;;;32.20;21.70;;;;;;;;;;2072714;28;20209;-56
2020/12/11 01:40:50;;;;;;;31.87;21.17;;;;;;;;;;2072938;28;20177;-53
2020/12/11 01:41:51;;;;;;;36.47;22.13;;;;;;;;;;2081275;28;20713;-53
2020/12/11 01:42:51;;;;;;;32.00;21.63;;;;;;;;;;2081660;28;20199;-55
2020/12/11 01:43:51;;;;;;;32.43;21.20;;;;;;;;;;2081305;28;20180;-52
2020/12/11 01:44:52;;;;;;;33.40;22.27;;;;;;;;;;2081637;28;20183;-52
2020/12/11 01:45:52;;;;;;;33.93;22.27;;;;;;;;;;2072610;28;20250;-56
2020/12/11 01:46:55;;;;;;;30.67;21.80;;;;;;;;;;2075607;28;20622;-57
2020/12/11 01:47:57;;;;;;;32.47;21.37;;;;;;;;;;2084398;28;20769;-57
2020/12/11 01:48:57;;;;;;;33.23;22.07;;;;;;;;;;2083813;28;20413;-57
2020/12/11 01:49:57;;;;;;;30.80;21.93;;;;;;;;;;2074786;28;20180;-57
2020/12/11 01:50:57;;;;;;;33.33;22.80;;;;;;;;;;2075215;28;20244;-56
2020/12/11 01:51:58;;;;;;;31.10;22.43;;;;;;;;;;2083946;28;20634;-55
2020/12/11 01:52:58;;;;;;;30.67;21.90;;;;;;;;;;2072609;28;20177;-58
2020/12/11 01:53:59;;;;;;;30.63;21.33;;;;;;;;;;2065315;28;20174;-56
2020/12/11 01:54:59;;;;;;;33.93;22.40;;;;;;;;;;2074641;28;20715;-55
2020/12/11 01:55:59;;;;;;;32.27;21.47;;;;;;;;;;2081639;28;20164;-54
2020/12/11 01:57:09;;;;;;;35.23;21.13;;;;;;;;;;2081408;28;20178;-53
2020/12/11 01:58:12;;;;;;;30.80;21.17;;;;;;;;;;2072913;28;20187;-57
2020/12/11 01:59:18;;;;;;;32.77;21.53;;;;;;;;;;2072870;28;20441;-57
2020/12/11 02:00:19;;;;;;;29.40;20.50;;;;;;;;;;2079538;28;20196;-49
2020/12/11 02:01:21;;;;;;;33.67;22.00;;;;;;;;;;2065069;28;20650;-55
2020/12/11 02:02:21;;;;;;;32.07;20.63;;;;;;;;;;2072869;28;20552;-53
2020/12/11 02:03:23;;;;;;;32.00;21.67;;;;;;;;;;2068373;28;20208;-55
2020/12/11 02:04:23;;;;;;;30.83;21.37;;;;;;;;;;2066939;28;20188;-52
2020/12/11 02:05:24;;;;;;;25.87;18.97;;;;;;;;;;2072960;28;20430;-52
2020/12/11 02:06:24;;;;;;;31.10;21.37;;;;;;;;;;2071903;28;20184;-51
2020/12/11 02:07:24;;;;;;;31.50;20.90;;;;;;;;;;2068933;28;20224;-55
2020/12/11 02:08:25;;;;;;;30.90;21.03;;;;;;;;;;2062242;28;20248;-49
2020/12/11 02:09:25;;;;;;;30.63;20.97;;;;;;;;;;2061750;28;20198;-51
2020/12/11 02:10:25;;;;;;;31.10;20.60;;;;;;;;;;2064331;28;20170;-53
2020/12/11 02:11:26;;;;;;;31.20;21.43;;;;;;;;;;2070598;28;20665;-52
2020/12/11 02:12:26;;;;;;;28.53;20.17;;;;;;;;;;2079746;28;20176;-53
2020/12/11 02:13:26;;;;;;;29.43;20.53;;;;;;;;;;2076677;28;20189;-51
2020/12/11 02:14:27;;;;;;;34.43;22.70;;;;;;;;;;2081434;28;20258;-54
2020/12/11 02:15:27;;;;;;;30.03;21.10;;;;;;;;;;2074468;28;20236;-53
2020/12/11 02:16:27;;;;;;;30.80;21.07;;;;;;;;;;2077520;28;20554;-53
2020/12/11 02:17:27;;;;;;;30.03;21.43;;;;;;;;;;2058163;28;20189;-53
2020/12/11 02:18:28;;;;;;;32.90;21.63;;;;;;;;;;2052227;28;20193;-57
2020/12/11 02:19:34;;;;;;;28.83;19.77;;;;;;;;;;2068776;28;20236;-53
2020/12/11 02:20:35;;;;;;;32.47;20.90;;;;;;;;;;2073486;28;20157;-55
2020/12/11 02:21:35;;;;;;;33.43;20.17;;;;;;;;;;2080049;28;20179;-50
2020/12/11 02:22:35;;;;;;;30.50;20.97;;;;;;;;;;2081159;28;20250;-54
2020/12/11 02:23:36;;;;;;;29.47;20.90;;;;;;;;;;2080301;28;20232;-55
2020/12/11 02:24:36;;;;;;;31.40;21.60;;;;;;;;;;2073359;28;20256;-54
2020/12/11 02:25:39;;;;;;;31.70;21.67;;;;;;;;;;2077212;28;20215;-53
2020/12/11 02:26:40;;;;;;;27.97;20.67;;;;;;;;;;2074048;28;20177;-56
2020/12/11 02:27:40;;;;;;;29.77;20.67;;;;;;;;;;2079655;28;20448;-53
2020/12/11 02:28:40;;;;;;;27.67;20.00;;;;;;;;;;2073174;28;20191;-55
2020/12/11 02:29:41;;;;;;;29.83;20.97;;;;;;;;;;2072423;28;20694;-54
2020/12/11 02:30:41;;;;;;;30.37;20.67;;;;;;;;;;2080463;28;20500;-55
2020/12/11 02:31:41;;;;;;;30.50;20.53;;;;;;;;;;2081463;28;20187;-53
2020/12/11 02:32:41;;;;;;;35.30;20.57;;;;;;;;;;2072650;28;20177;-53
2020/12/11 02:33:42;;;;;;;31.67;21.27;;;;;;;;;;2072774;28;20225;-55
2020/12/11 02:34:42;;;;;;;30.57;19.93;;;;;;;;;;2081283;28;20191;-55
2020/12/11 02:35:43;;;;;;;31.23;20.87;;;;;;;;;;2073909;28;20263;-59
2020/12/11 02:36:43;;;;;;;33.10;22.00;;;;;;;;;;2073099;28;20195;-56
2020/12/11 02:37:43;;;;;;;29.77;21.30;;;;;;;;;;2072435;28;20657;-57
2020/12/11 02:38:43;;;;;;;30.50;20.53;;;;;;;;;;2068069;28;20184;-55
2020/12/11 02:39:44;;;;;;;29.77;19.87;;;;;;;;;;2072824;28;20254;-54
2020/12/11 02:40:48;;;;;;;30.07;22.20;;;;;;;;;;2072941;28;20181;-56
2020/12/11 02:41:48;;;;;;;32.37;20.53;;;;;;;;;;2065027;28;20182;-55
2020/12/11 02:42:48;;;;;;;34.03;23.00;;;;;;;;;;2064703;28;20224;-56
2020/12/11 02:43:49;;;;;;;32.03;21.43;;;;;;;;;;2072675;28;20169;-53
2020/12/11 02:44:49;;;;;;;31.30;21.73;;;;;;;;;;2081336;28;20169;-57
2020/12/11 02:45:51;;;;;;;30.60;21.30;;;;;;;;;;2082201;28;20176;-55
2020/12/11 02:46:51;;;;;;;34.50;21.23;;;;;;;;;;2079231;28;20548;-52
2020/12/11 02:47:51;;;;;;;30.10;20.80;;;;;;;;;;2074326;28;20212;-56
2020/12/11 02:48:51;;;;;;;30.33;21.70;;;;;;;;;;2079451;28;20204;-57
2020/12/11 02:49:52;;;;;;;32.17;21.50;;;;;;;;;;2079432;28;20169;-57
2020/12/11 02:50:52;;;;;;;31.10;21.20;;;;;;;;;;2074763;28;20219;-53
2020/12/11 02:51:52;;;;;;;32.20;22.67;;;;;;;;;;2074788;28;20181;-54
2020/12/11 02:52:52;;;;;;;28.90;20.50;;;;;;;;;;2074517;28;20548;-53
2020/12/11 02:53:53;;;;;;;33.27;21.97;;;;;;;;;;2079600;28;20230;-56
2020/12/11 02:54:53;;;;;;;32.23;22.10;;;;;;;;;;2082659;28;20629;-53
2020/12/11 02:55:53;;;;;;;31.83;20.77;;;;;;;;;;2078624;28;20177;-54
2020/12/11 02:56:53;;;;;;;31.40;20.43;;;;;;;;;;2074370;28;20169;-54
2020/12/11 02:57:54;;;;;;;32.90;22.17;;;;;;;;;;2065415;28;20217;-58
2020/12/11 02:58:54;;;;;;;35.67;22.57;;;;;;;;;;2065822;28;20210;-59
2020/12/11 02:59:54;;;;;;;35.37;22.20;;;;;;;;;;2075564;28;20168;-57
2020/12/11 03:00:54;;;;;;;34.70;22.03;;;;;;;;;;2066707;28;20179;-56
2020/12/11 03:01:55;;;;;;;30.47;21.00;;;;;;;;;;2066009;28;20182;-53
2020/12/11 03:02:55;;;;;;;33.43;21.83;;;;;;;;;;2081058;28;20208;-56
2020/12/11 03:03:55;;;;;;;34.57;21.97;;;;;;;;;;2077083;28;20227;-57
2020/12/11 03:04:55;;;;;;;33.87;22.03;;;;;;;;;;2074485;28;20169;-55
2020/12/11 03:05:56;;;;;;;30.83;20.80;;;;;;;;;;2074599;28;20173;-54
2020/12/11 03:06:56;;;;;;;31.67;22.93;;;;;;;;;;2074376;28;20172;-53
2020/12/11 03:07:56;;;;;;;35.90;22.03;;;;;;;;;;2073967;28;20177;-55
2020/12/11 03:08:57;;;;;;;35.57;22.77;;;;;;;;;;2079966;28;20215;-54
2020/12/11 03:09:57;;;;;;;32.30;22.07;;;;;;;;;;2077696;28;20255;-53
2020/12/11 03:10:57;;;;;;;29.70;20.90;;;;;;;;;;2079545;28;20287;-56
2020/12/11 03:11:58;;;;;;;32.70;21.70;;;;;;;;;;2082574;28;20164;-53
2020/12/11 03:12:58;;;;;;;32.93;22.17;;;;;;;;;;2070566;28;20182;-57
2020/12/11 03:13:58;;;;;;;37.47;24.20;;;;;;;;;;2070122;28;20177;-53
2020/12/11 03:14:58;;;;;;;36.03;22.27;;;;;;;;;;2078063;28;20177;-55
2020/12/11 03:15:59;;;;;;;36.33;23.90;;;;;;;;;;2080253;28;20196;-53
2020/12/11 03:16:59;;;;;;;33.37;22.30;;;;;;;;;;2076307;28;20653;-53
2020/12/11 03:18:00;;;;;;;33.63;22.33;;;;;;;;;;2082197;28;20195;-54
2020/12/11 03:19:03;;;;;;;33.77;22.57;;;;;;;;;;2078704;28;20177;-50
2020/12/11 03:20:04;;;;;;;35.90;22.23;;;;;;;;;;2098950;23;20235;-51
2020/12/11 03:21:04;;;;;;;34.60;22.57;;;;;;;;;;2080347;28;20168;-53
2020/12/11 03:22:04;;;;;;;35.70;23.57;;;;;;;;;;2082611;28;20200;-53
2020/12/11 03:23:04;;;;;;;33.13;22.00;;;;;;;;;;2083280;28;20255;-51
2020/12/11 03:24:05;;;;;;;37.90;22.57;;;;;;;;;;2074850;28;20649;-53
2020/12/11 03:25:05;;;;;;;33.43;22.80;;;;;;;;;;2069911;28;20203;-52
2020/12/11 03:26:05;;;;;;;33.97;21.77;;;;;;;;;;2082514;28;20165;-49
2020/12/11 03:27:06;;;;;;;34.27;23.50;;;;;;;;;;2083071;28;20173;-51
2020/12/11 03:28:06;;;;;;;33.90;22.70;;;;;;;;;;2074420;28;20644;-55
2020/12/11 03:29:06;;;;;;;34.53;22.37;;;;;;;;;;2075310;28;20260;-54
2020/12/11 03:30:06;;;;;;;34.40;22.33;;;;;;;;;;2080246;28;20196;-52
2020/12/11 03:31:07;;;;;;;33.47;21.27;;;;;;;;;;2083675;28;20183;-52
2020/12/11 03:32:07;;;;;;;34.97;21.97;;;;;;;;;;2083089;28;20240;-53
2020/12/11 03:33:07;;;;;;;35.33;22.83;;;;;;;;;;2081083;28;20207;-50
2020/12/11 03:34:07;;;;;;;34.77;21.80;;;;;;;;;;2083189;28;20574;-49
2020/12/11 03:35:08;;;;;;;34.40;21.87;;;;;;;;;;2080675;28;20656;-49
2020/12/11 03:36:08;;;;;;;34.37;22.40;;;;;;;;;;2073783;28;20259;-52
2020/12/11 03:37:08;;;;;;;34.73;22.40;;;;;;;;;;2073497;28;20180;-52
2020/12/11 03:38:08;;;;;;;36.33;23.87;;;;;;;;;;2079027;28;20636;-56
2020/12/11 03:39:09;;;;;;;35.87;22.93;;;;;;;;;;2083117;28;20199;-53
2020/12/11 03:40:09;;;;;;;36.23;23.53;;;;;;;;;;2082913;28;20175;-53
2020/12/11 03:41:13;;;;;;;36.93;23.60;;;;;;;;;;2079732;28;20187;-53
2020/12/11 03:42:13;;;;;;;33.93;22.20;;;;;;;;;;2079486;28;20223;-51
2020/12/11 03:43:13;;;;;;;33.50;22.03;;;;;;;;;;2082854;28;20690;-54
2020/12/11 03:44:13;;;;;;;33.37;21.67;;;;;;;;;;2082839;28;20168;-53
2020/12/11 03:45:14;;;;;;;34.50;22.87;;;;;;;;;;2077645;28;20279;-52
2020/12/11 03:46:20;;;;;;;35.87;23.87;;;;;;;;;;2073939;28;20227;-51
2020/12/11 03:47:21;;;;;;;37.47;23.90;;;;;;;;;;2082277;28;20231;-51
2020/12/11 03:48:21;;;;;;;35.00;23.17;;;;;;;;;;2081694;28;20160;-50
2020/12/11 03:49:22;;;;;;;33.47;21.47;;;;;;;;;;2081556;28;20547;-54
2020/12/11 03:50:22;;;;;;;33.43;22.07;;;;;;;;;;2074985;28;20188;-51
2020/12/11 03:51:23;;;;;;;35.33;23.63;;;;;;;;;;2074762;28;20185;-55
2020/12/11 03:52:26;;;;;;;38.43;23.60;;;;;;;;;;2074987;28;20197;-52
2020/12/11 03:53:26;;;;;;;36.53;22.80;;;;;;;;;;2075387;28;20597;-55
2020/12/11 03:54:27;;;;;;;34.20;21.67;;;;;;;;;;2081451;28;20474;-52
2020/12/11 03:55:27;;;;;;;34.80;23.17;;;;;;;;;;2077327;28;20634;-52
2020/12/11 03:56:27;;;;;;;34.77;21.70;;;;;;;;;;2080995;28;20176;-51
2020/12/11 03:57:27;;;;;;;33.20;22.40;;;;;;;;;;2074081;28;20724;-50
2020/12/11 03:58:28;;;;;;;31.40;21.53;;;;;;;;;;2074148;28;20176;-56
2020/12/11 03:59:28;;;;;;;36.00;21.53;;;;;;;;;;2082091;28;20672;-54
2020/12/11 04:00:28;;;;;;;36.57;22.70;;;;;;;;;;2083036;28;20173;-56
2020/12/11 04:01:28;;;;;;;32.43;21.13;;;;;;;;;;2082982;28;20641;-52
2020/12/11 04:02:28;;;;;;;32.47;22.17;;;;;;;;;;2083041;28;20680;-50
2020/12/11 04:03:29;;;;;;;32.93;21.67;;;;;;;;;;2081401;28;20180;-51
2020/12/11 04:04:29;;;;;;;32.07;22.07;;;;;;;;;;2075314;28;20538;-50
2020/12/11 04:05:29;;;;;;;30.30;21.17;;;;;;;;;;2065985;28;20186;-52
2020/12/11 04:06:29;;;;;;;32.17;20.67;;;;;;;;;;2066112;28;20165;-55
2020/12/11 04:07:30;;;;;;;36.23;22.87;;;;;;;;;;2074745;28;20176;-49
2020/12/11 04:08:30;;;;;;;33.27;22.53;;;;;;;;;;2074344;28;20520;-51
2020/12/11 04:09:30;;;;;;;37.03;23.90;;;;;;;;;;2067062;28;20243;-49
2020/12/11 04:10:31;;;;;;;34.37;21.27;;;;;;;;;;2074193;28;20165;-55
2020/12/11 04:11:31;;;;;;;37.20;23.43;;;;;;;;;;2082960;28;20187;-53
2020/12/11 04:12:31;;;;;;;33.20;21.57;;;;;;;;;;2083080;28;20203;-57
2020/12/11 04:13:32;;;;;;;34.77;22.23;;;;;;;;;;2082246;28;20235;-50
2020/12/11 04:14:32;;;;;;;35.97;22.57;;;;;;;;;;2074037;28;20193;-51
2020/12/11 04:15:32;;;;;;;33.87;22.67;;;;;;;;;;2074230;28;20165;-54
2020/12/11 04:16:35;;;;;;;33.43;22.00;;;;;;;;;;2083327;28;20219;-52
2020/12/11 04:17:36;;;;;;;33.00;21.90;;;;;;;;;;2082371;28;20181;-53
2020/12/11 04:18:36;;;;;;;30.93;20.77;;;;;;;;;;2080172;28;20272;-52
2020/12/11 04:19:36;;;;;;;35.90;23.03;;;;;;;;;;2076478;28;20232;-53
2020/12/11 04:20:36;;;;;;;34.43;22.07;;;;;;;;;;2082713;28;20338;-50
2020/12/11 04:21:37;;;;;;;32.73;21.57;;;;;;;;;;2082526;28;20336;-52
2020/12/11 04:22:37;;;;;;;31.63;21.73;;;;;;;;;;2083295;28;20216;-50
2020/12/11 04:23:37;;;;;;;33.03;22.43;;;;;;;;;;2079790;28;20192;-51
2020/12/11 04:24:37;;;;;;;30.30;21.17;;;;;;;;;;2074820;28;20180;-54
2020/12/11 04:25:38;;;;;;;31.77;21.47;;;;;;;;;;2074615;28;20588;-54
2020/12/11 04:26:38;;;;;;;31.10;21.33;;;;;;;;;;2074701;28;20165;-53
2020/12/11 04:27:38;;;;;;;32.30;21.27;;;;;;;;;;2065676;28;20209;-54
2020/12/11 04:28:39;;;;;;;32.27;21.03;;;;;;;;;;2054267;28;20202;-51
2020/12/11 04:29:39;;;;;;;28.10;19.20;;;;;;;;;;2065774;28;20236;-54
2020/12/11 04:30:39;;;;;;;33.60;21.83;;;;;;;;;;2083003;28;20601;-52
2020/12/11 04:31:40;;;;;;;32.53;21.53;;;;;;;;;;2082679;28;20168;-48
2020/12/11 04:32:40;;;;;;;33.33;21.30;;;;;;;;;;2082702;28;20240;-51
2020/12/11 04:33:41;;;;;;;30.77;21.17;;;;;;;;;;2082053;28;20271;-54
2020/12/11 04:34:41;;;;;;;31.10;21.33;;;;;;;;;;2065676;28;20277;-51
2020/12/11 04:35:41;;;;;;;32.07;21.30;;;;;;;;;;2066125;28;20184;-52
2020/12/11 04:36:41;;;;;;;32.97;21.07;;;;;;;;;;2082942;28;20223;-54
2020/12/11 04:37:42;;;;;;;35.10;22.80;;;;;;;;;;2074149;28;20217;-54
2020/12/11 04:38:43;;;;;;;32.10;21.60;;;;;;;;;;2072544;28;20182;-55
2020/12/11 04:39:43;;;;;;;32.17;21.77;;;;;;;;;;2082934;28;20258;-54
2020/12/11 04:40:44;;;;;;;32.27;21.60;;;;;;;;;;2073862;28;20188;-51
2020/12/11 04:41:44;;;;;;;32.23;22.17;;;;;;;;;;2063377;28;20216;-52
2020/12/11 04:42:45;;;;;;;36.83;22.37;;;;;;;;;;2065992;28;20621;-55
2020/12/11 04:43:49;;;;;;;33.50;22.40;;;;;;;;;;2069679;28;20558;-55
2020/12/11 04:44:50;;;;;;;34.60;21.57;;;;;;;;;;2074042;28;20173;-52
2020/12/11 04:45:51;;;;;;;35.47;21.87;;;;;;;;;;2082249;28;20250;-52
2020/12/11 04:46:51;;;;;;;36.90;23.27;;;;;;;;;;2083013;28;20177;-52
2020/12/11 04:47:52;;;;;;;34.53;23.50;;;;;;;;;;2082584;28;20179;-54
2020/12/11 04:48:53;;;;;;;35.57;23.00;;;;;;;;;;2077636;28;20177;-53
2020/12/11 04:49:54;;;;;;;34.73;22.30;;;;;;;;;;2079085;28;20196;-51
2020/12/11 04:50:54;;;;;;;37.77;23.93;;;;;;;;;;2079383;28;20192;-53
2020/12/11 04:51:56;;;;;;;34.93;22.63;;;;;;;;;;2079195;28;20184;-51
2020/12/11 04:52:57;;;;;;;32.83;22.00;;;;;;;;;;2079771;28;20187;-52
2020/12/11 04:53:58;;;;;;;34.83;22.57;;;;;;;;;;2078153;28;20184;-55
2020/12/11 04:54:59;;;;;;;33.30;22.60;;;;;;;;;;2079704;28;20227;-53
2020/12/11 04:56:01;;;;;;;36.20;24.23;;;;;;;;;;2079504;28;20222;-51
2020/12/11 04:57:02;;;;;;;35.43;22.97;;;;;;;;;;2080521;28;20609;-51
2020/12/11 04:58:05;;;;;;;35.03;23.03;;;;;;;;;;2084394;28;20199;-51
2020/12/11 04:59:05;;;;;;;34.53;21.97;;;;;;;;;;2082029;28;20183;-51
2020/12/11 05:00:06;;;;;;;33.37;22.73;;;;;;;;;;2083754;28;20623;-55
2020/12/11 05:01:08;;;;;;;31.80;22.20;;;;;;;;;;2072105;28;20344;-55
2020/12/11 05:02:12;;;;;;;32.87;21.50;;;;;;;;;;2077867;28;20212;-49
2020/12/11 05:03:13;;;;;;;30.93;20.80;;;;;;;;;;2080575;28;20187;-51
2020/12/11 05:04:13;;;;;;;34.37;21.73;;;;;;;;;;2083557;28;20644;-51
2020/12/11 05:05:15;;;;;;;32.47;22.70;;;;;;;;;;2071842;28;20235;-51
2020/12/11 05:06:15;;;;;;;37.90;23.13;;;;;;;;;;2073722;28;20176;-53
2020/12/11 05:07:15;;;;;;;31.83;21.17;;;;;;;;;;2082552;28;20262;-51
2020/12/11 05:08:17;;;;;;;34.80;23.13;;;;;;;;;;2079306;28;20176;-51
2020/12/11 05:09:19;;;;;;;33.70;22.30;;;;;;;;;;2080395;28;20179;-47
2020/12/11 05:10:19;;;;;;;32.80;22.20;;;;;;;;;;2079739;28;20418;-53
2020/12/11 05:11:26;;;;;;;34.07;21.77;;;;;;;;;;2081585;28;20172;-51
2020/12/11 05:12:26;;;;;;;31.80;21.00;;;;;;;;;;2080420;28;20710;-54
2020/12/11 05:13:27;;;;;;;37.83;23.33;;;;;;;;;;2081799;28;20196;-54
2020/12/11 05:14:30;;;;;;;32.80;22.90;;;;;;;;;;2079872;28;20617;-53
2020/12/11 05:15:30;;;;;;;35.27;22.00;;;;;;;;;;2081969;28;20180;-51
2020/12/11 05:16:30;;;;;;;33.53;21.40;;;;;;;;;;2078538;28;20180;-52
2020/12/11 05:17:41;;;;;;;35.17;22.77;;;;;;;;;;2081787;28;20192;-54
2020/12/11 05:18:41;;;;;;;35.37;22.63;;;;;;;;;;2076132;28;20192;-50
2020/12/11 05:19:51;;;;;;;34.07;22.20;;;;;;;;;;2081203;28;20461;-50
2020/12/11 05:20:51;;;;;;;35.97;23.90;;;;;;;;;;2075168;28;20184;-53
2020/12/11 05:21:52;;;;;;;36.30;23.17;;;;;;;;;;2067334;28;20431;-51
2020/12/11 05:22:52;;;;;;;32.07;22.47;;;;;;;;;;2081694;28;20178;-51
2020/12/11 05:23:53;;;;;;;34.77;21.80;;;;;;;;;;2080994;28;20185;-51
2020/12/11 05:24:54;;;;;;;30.77;21.23;;;;;;;;;;2075898;28;20206;-55
2020/12/11 05:25:59;;;;;;;34.00;22.50;;;;;;;;;;2071750;28;20259;-53
2020/12/11 05:26:59;;;;;;;38.33;22.77;;;;;;;;;;2073645;28;20176;-53
2020/12/11 05:28:00;;;;;;;35.43;22.53;;;;;;;;;;2079901;28;20172;-56
2020/12/11 05:29:01;;;;;;;35.73;23.23;;;;;;;;;;2083094;28;20251;-56
2020/12/11 05:30:18;;;;;;;36.57;22.63;;;;;;;;;;2079952;28;20615;-50
2020/12/11 05:31:19;;;;;;;36.27;22.37;;;;;;;;;;2079375;28;20176;-54
2020/12/11 05:32:37;;;;;;;35.10;22.80;;;;;;;;;;2079880;28;20834;-49
2020/12/11 05:33:38;;;;;;;36.50;21.87;;;;;;;;;;2080664;28;20188;-54
2020/12/11 05:34:38;;;;;;;36.00;22.07;;;;;;;;;;2079529;28;20444;-55
2020/12/11 05:35:38;;;;;;;31.77;20.97;;;;;;;;;;2080042;28;20651;-53
2020/12/11 05:36:41;;;;;;;35.30;21.93;;;;;;;;;;2081779;28;20648;-52
2020/12/11 05:37:49;;;;;;;32.93;21.90;;;;;;;;;;2071626;28;20223;-52
2020/12/11 05:38:49;;;;;;;32.23;22.03;;;;;;;;;;2073022;28;20817;-52
2020/12/11 05:39:49;;;;;;;32.27;20.63;;;;;;;;;;2080657;28;20196;-55
2020/12/11 05:40:49;;;;;;;35.00;22.43;;;;;;;;;;2082395;28;20174;-54
2020/12/11 05:41:50;;;;;;;37.73;23.70;;;;;;;;;;2077461;28;20693;-50
2020/12/11 05:43:08;;;;;;;34.17;22.70;;;;;;;;;;2071198;28;20287;-51
2020/12/11 05:44:21;;;;;;;33.07;22.43;;;;;;;;;;2075778;28;20180;-53
2020/12/11 05:45:22;;;;;;;39.20;23.83;;;;;;;;;;2079732;28;20179;-54
2020/12/11 05:46:27;;;;;;;32.73;21.37;;;;;;;;;;2074418;28;20418;-52
2020/12/11 05:47:28;;;;;;;30.37;21.20;;;;;;;;;;2079392;28;20172;-53
2020/12/11 05:48:46;;;;;;;38.17;22.50;;;;;;;;;;2080009;28;20417;-54
2020/12/11 05:49:46;;;;;;;33.63;21.00;;;;;;;;;;2076278;28;20218;-50
2020/12/11 05:50:46;;;;;;;32.37;22.17;;;;;;;;;;2081119;28;20423;-51
2020/12/11 05:51:47;;;;;;;39.33;23.37;;;;;;;;;;2065383;28;20177;-55
2020/12/11 05:52:47;;;;;;;32.80;21.67;;;;;;;;;;2080740;28;20184;-54
2020/12/11 05:53:48;;;;;;;33.93;22.50;;;;;;;;;;2078302;28;20181;-54